Time;durP1;ratioP1;P1;durP2;ratioP2;P2;SDS_P1;SDS_P2;PMS_P1;PMS_P2;Temp;Humidity;BMP_temperature;BMP_pressure;BME280_temperature;BME280_humidity;BME280_pressure;Samples;Min_cycle;Max_cycle;Signal;HPM_P1;HPM_P2
2022/12/22 03:27:08;;;;;;;11.60;7.68;;;;;;;7.35;100.00;100152.06;4944207;29;20267;-78
2022/12/22 03:29:37;;;;;;;10.52;8.95;;;;;;;7.29;100.00;100150.16;4944739;29;20208;-78
2022/12/22 03:32:07;;;;;;;9.95;7.88;;;;;;;7.41;100.00;100145.84;4945611;29;20219;-78
2022/12/22 03:34:36;;;;;;;10.02;8.18;;;;;;;7.29;100.00;100136.69;4947647;29;20239;-78
2022/12/22 03:37:05;;;;;;;11.98;8.52;;;;;;;7.37;100.00;100130.31;4952871;28;20198;-78
2022/12/22 03:39:34;;;;;;;9.88;8.52;;;;;;;7.43;100.00;100129.50;4952313;29;20499;-78
2022/12/22 03:47:39;;;;;;;10.43;8.23;;;;;;;7.35;100.00;100125.13;4949330;29;20201;-78
2022/12/22 03:50:08;;;;;;;11.20;7.50;;;;;;;7.34;100.00;100118.09;4943375;29;20235;-79
2022/12/22 03:52:37;;;;;;;11.18;8.90;;;;;;;7.40;100.00;100101.16;4944891;29;20190;-80
2022/12/22 03:55:08;;;;;;;12.13;8.52;;;;;;;7.36;100.00;100109.78;4939571;29;20224;-79
2022/12/22 03:57:37;;;;;;;9.48;7.25;;;;;;;7.23;100.00;100115.13;4953162;29;20212;-80
2022/12/22 04:00:09;;;;;;;11.02;8.98;;;;;;;7.31;100.00;100102.31;4958393;28;20183;-79
2022/12/22 04:02:41;;;;;;;9.75;8.52;;;;;;;7.33;100.00;100096.75;4963856;28;20219;-80
2022/12/22 04:05:11;;;;;;;10.32;8.32;;;;;;;7.25;100.00;100083.47;4959026;28;20272;-80
2022/12/22 04:07:40;;;;;;;10.90;8.45;;;;;;;7.31;100.00;100080.00;4961496;28;20196;-82
2022/12/22 04:12:57;;;;;;;8.77;6.95;;;;;;;7.32;100.00;100066.31;4956074;28;20199;-81
2022/12/22 04:15:31;;;;;;;11.07;8.35;;;;;;;7.24;100.00;100066.50;4959046;29;20203;-80
2022/12/22 04:18:00;;;;;;;11.10;7.85;;;;;;;7.20;100.00;100062.56;4955382;29;20189;-82
2022/12/22 04:20:29;;;;;;;9.98;8.77;;;;;;;7.26;100.00;100075.19;4952929;29;20704;-83
2022/12/22 04:22:59;;;;;;;11.15;8.10;;;;;;;7.22;100.00;100065.84;4954965;29;20212;-80
2022/12/22 04:25:29;;;;;;;10.07;8.75;;;;;;;7.27;100.00;100068.78;4951908;29;20307;-83
2022/12/22 04:27:58;;;;;;;12.20;8.05;;;;;;;7.30;100.00;100073.78;4947389;29;20216;-81
2022/12/22 04:30:28;;;;;;;15.43;9.25;;;;;;;7.43;100.00;100079.19;4946555;29;20627;-82
2022/12/22 04:32:58;;;;;;;11.05;8.90;;;;;;;7.29;100.00;100071.28;4937560;29;20229;-84
2022/12/22 04:35:27;;;;;;;10.52;7.57;;;;;;;7.43;100.00;100079.19;4928294;29;20698;-83
2022/12/22 04:37:56;;;;;;;12.82;8.25;;;;;;;7.57;100.00;100071.16;4929185;29;20212;-82
2022/12/22 04:40:25;;;;;;;10.13;7.28;;;;;;;7.55;100.00;100065.16;4946572;29;20637;-80
2022/12/22 04:42:54;;;;;;;13.88;9.18;;;;;;;7.52;100.00;100060.16;4960853;28;20196;-80
2022/12/22 04:45:24;;;;;;;12.18;9.10;;;;;;;7.63;100.00;100054.19;4955613;28;20256;-79
2022/12/22 04:47:55;;;;;;;11.77;8.20;;;;;;;7.50;100.00;100046.94;4953870;28;20265;-79
2022/12/22 04:50:24;;;;;;;12.80;8.15;;;;;;;7.50;100.00;100046.09;4936623;29;20239;-79
2022/12/22 04:52:53;;;;;;;10.57;7.68;;;;;;;7.50;100.00;100051.47;4932012;29;20277;-81
2022/12/22 04:55:22;;;;;;;13.73;9.75;;;;;;;7.54;100.00;100047.34;4947551;29;20330;-80
2022/12/22 04:57:51;;;;;;;15.15;8.60;;;;;;;7.71;100.00;100044.06;4942240;29;20283;-78
2022/12/22 05:00:21;;;;;;;9.50;8.50;;;;;;;7.63;100.00;100043.44;4953751;29;20726;-79
2022/12/22 05:02:50;;;;;;;14.90;10.35;;;;;;;7.69;100.00;100029.16;4950053;29;20247;-80
2022/12/22 05:05:21;;;;;;;13.48;8.25;;;;;;;7.70;100.00;100030.78;4951572;28;20224;-78
2022/12/22 05:07:50;;;;;;;11.45;7.78;;;;;;;7.89;100.00;100021.09;4950660;29;20785;-79
2022/12/22 05:10:19;;;;;;;13.00;8.82;;;;;;;7.92;100.00;100018.81;4942625;29;20220;-79
2022/12/22 05:12:54;;;;;;;12.88;10.20;;;;;;;7.96;100.00;100024.63;4957614;29;20449;-79
2022/12/22 05:15:25;;;;;;;11.50;8.95;;;;;;;7.85;100.00;100012.59;4960350;29;20211;-78
2022/12/22 05:17:55;;;;;;;14.55;9.95;;;;;;;7.65;100.00;100017.94;4958000;29;20184;-79
2022/12/22 05:20:26;;;;;;;19.42;9.93;;;;;;;7.74;100.00;100018.59;4960731;29;20200;-78
2022/12/22 05:22:56;;;;;;;16.05;10.05;;;;;;;7.83;100.00;100006.59;4966931;28;20207;-79
2022/12/22 05:25:26;;;;;;;13.60;10.52;;;;;;;7.76;100.00;100008.44;4944783;29;20228;-79
2022/12/22 05:28:02;;;;;;;18.42;12.15;;;;;;;7.81;100.00;100005.97;4955068;29;20226;-78
2022/12/22 05:30:31;;;;;;;19.88;10.35;;;;;;;7.80;100.00;100004.28;4948456;29;20228;-79
2022/12/22 05:33:01;;;;;;;13.55;9.98;;;;;;;7.86;100.00;100006.16;4960306;29;20212;-79
2022/12/22 05:35:31;;;;;;;16.45;10.40;;;;;;;7.75;100.00;99996.00;4953953;28;20275;-79
2022/12/22 05:38:00;;;;;;;14.63;10.52;;;;;;;7.86;100.00;99992.69;4950537;29;20196;-79
2022/12/22 05:40:29;;;;;;;13.77;10.23;;;;;;;7.95;100.00;99988.75;4960332;28;20208;-80
2022/12/22 05:42:59;;;;;;;20.55;12.57;;;;;;;7.92;100.00;99991.06;4953802;28;20225;-78
2022/12/22 05:45:28;;;;;;;18.83;9.50;;;;;;;7.84;100.00;99989.41;4963818;29;20224;-78
2022/12/22 05:47:58;;;;;;;15.68;10.43;;;;;;;7.80;100.00;99983.56;4947260;29;20201;-78
2022/12/22 05:50:28;;;;;;;12.18;9.65;;;;;;;7.77;100.00;99975.09;4959342;28;20220;-79
2022/12/22 05:53:06;;;;;;;15.35;11.20;;;;;;;7.81;100.00;99976.34;4958382;28;20234;-80
2022/12/22 05:55:36;;;;;;;20.88;13.63;;;;;;;7.71;100.00;99968.66;4965142;28;20220;-79
2022/12/22 05:58:05;;;;;;;17.48;11.23;;;;;;;7.68;100.00;99962.88;4950305;29;20197;-80
2022/12/22 06:00:34;;;;;;;15.77;11.35;;;;;;;7.75;100.00;99964.50;4946821;29;20256;-81
2022/12/22 06:03:03;;;;;;;16.63;10.77;;;;;;;7.92;100.00;99959.56;4950498;29;20204;-78
2022/12/22 06:05:33;;;;;;;19.83;11.68;;;;;;;7.88;100.00;99966.41;4950499;29;20224;-78
2022/12/22 06:08:03;;;;;;;19.90;11.55;;;;;;;7.80;100.00;99961.19;4954215;29;20204;-80
2022/12/22 06:10:33;;;;;;;16.10;11.00;;;;;;;7.93;100.00;99955.84;4965114;29;20252;-80
2022/12/22 06:13:02;;;;;;;17.20;13.02;;;;;;;7.96;100.00;99933.03;4951700;29;20200;-80
2022/12/22 06:15:31;;;;;;;14.45;11.82;;;;;;;7.90;100.00;99933.84;4956469;29;20216;-78
2022/12/22 06:18:01;;;;;;;15.15;11.43;;;;;;;7.98;100.00;99933.66;4954735;29;20200;-79
2022/12/22 06:20:30;;;;;;;15.32;10.93;;;;;;;7.84;100.00;99943.63;4961402;29;20208;-79
2022/12/22 06:22:59;;;;;;;18.65;11.63;;;;;;;7.83;100.00;99932.00;4934063;29;20201;-78
2022/12/22 06:25:28;;;;;;;17.65;12.40;;;;;;;8.02;100.00;99927.66;4948242;29;20336;-80
2022/12/22 06:27:59;;;;;;;19.10;12.85;;;;;;;8.02;100.00;99934.91;4957203;29;20204;-79
2022/12/22 06:30:28;;;;;;;18.60;12.30;;;;;;;8.09;100.00;99933.00;4953319;29;20212;-81
2022/12/22 06:33:02;;;;;;;19.02;11.00;;;;;;;8.08;100.00;99923.28;4946414;29;20244;-80
2022/12/22 06:35:32;;;;;;;17.67;11.45;;;;;;;8.11;100.00;99912.91;4945787;29;20205;-80
2022/12/22 06:38:01;;;;;;;17.63;11.52;;;;;;;8.13;100.00;99918.91;4953770;29;20218;-80
2022/12/22 06:40:30;;;;;;;18.88;12.48;;;;;;;8.07;100.00;99914.38;4948623;29;20223;-79
2022/12/22 06:43:09;;;;;;;19.63;11.40;;;;;;;8.07;100.00;99917.06;4940690;29;20181;-80
2022/12/22 06:45:40;;;;;;;16.85;11.55;;;;;;;8.05;100.00;99913.75;4956246;29;20235;-80
2022/12/22 06:48:11;;;;;;;18.25;11.27;;;;;;;8.05;100.00;99912.91;4948316;29;20236;-77
2022/12/22 06:50:41;;;;;;;18.88;11.77;;;;;;;7.93;100.00;99912.75;4958875;29;20216;-80
2022/12/22 06:53:11;;;;;;;18.75;11.70;;;;;;;8.21;100.00;99913.31;4955296;29;20192;-79
2022/12/22 06:55:41;;;;;;;18.45;12.80;;;;;;;8.21;100.00;99913.31;4947343;29;20233;-79
2022/12/22 06:58:12;;;;;;;21.77;14.52;;;;;;;8.08;100.00;99916.03;4954739;29;20340;-80
2022/12/22 07:00:44;;;;;;;16.58;12.27;;;;;;;8.00;100.00;99918.94;4941076;29;20219;-80
2022/12/22 07:03:13;;;;;;;18.10;13.60;;;;;;;8.02;100.00;99911.47;4956332;28;20223;-79
2022/12/22 07:05:43;;;;;;;18.83;11.27;;;;;;;7.92;100.00;99911.06;4929395;29;20247;-79
2022/12/22 07:08:12;;;;;;;17.02;12.38;;;;;;;8.03;100.00;99921.22;4946312;29;20283;-79
2022/12/22 07:13:33;;;;;;;15.40;11.63;;;;;;;8.00;100.00;99907.31;4945944;29;20276;-79
2022/12/22 07:16:04;;;;;;;16.30;13.38;;;;;;;8.01;100.00;99907.13;4943768;29;20232;-81
2022/12/22 07:18:36;;;;;;;16.92;12.68;;;;;;;7.97;100.00;99905.88;4950720;29;20205;-79
2022/12/22 07:21:08;;;;;;;17.85;13.02;;;;;;;8.04;100.00;99904.00;4948320;29;20189;-79
2022/12/22 07:23:39;;;;;;;18.38;13.38;;;;;;;7.89;100.00;99895.31;4933973;29;20205;-81
2022/12/22 07:26:10;;;;;;;24.85;12.18;;;;;;;7.85;100.00;99888.69;4949281;29;20224;-81
2022/12/22 07:28:43;;;;;;;17.17;12.98;;;;;;;7.88;100.00;99888.28;4945848;29;20205;-82
2022/12/22 07:31:17;;;;;;;19.15;13.82;;;;;;;7.83;100.00;99890.78;4949597;29;20193;-79
2022/12/22 07:33:46;;;;;;;20.77;13.32;;;;;;;7.98;100.00;99883.31;4947113;29;20205;-78
2022/12/22 07:36:18;;;;;;;16.20;12.32;;;;;;;7.92;100.00;99881.44;4948837;28;20204;-79
2022/12/22 07:38:50;;;;;;;19.13;11.50;;;;;;;7.92;100.00;99884.13;4947622;29;20196;-79
2022/12/22 07:44:09;;;;;;;27.15;14.05;;;;;;;8.01;100.00;99887.44;4949047;29;20192;-79
2022/12/22 07:46:40;;;;;;;18.27;12.60;;;;;;;7.98;100.00;99877.91;4929914;29;20221;-79
2022/12/22 07:51:58;;;;;;;20.58;14.10;;;;;;;8.03;100.00;99872.72;4946590;29;20198;-81
2022/12/22 07:54:28;;;;;;;22.27;12.55;;;;;;;7.93;100.00;99874.19;4949161;28;20204;-80
2022/12/22 07:57:02;;;;;;;20.73;13.63;;;;;;;7.99;100.00;99868.78;4953341;29;20221;-79
2022/12/22 07:59:32;;;;;;;23.70;13.73;;;;;;;8.03;100.00;99870.03;4947985;29;20197;-79
2022/12/22 08:02:02;;;;;;;18.88;12.40;;;;;;;8.05;100.00;99867.09;4967308;28;20189;-80
2022/12/22 08:04:33;;;;;;;15.70;13.13;;;;;;;8.03;100.00;99859.25;4959430;28;20281;-78
2022/12/22 08:07:02;;;;;;;22.27;13.25;;;;;;;8.14;100.00;99863.97;4950951;28;20177;-79
2022/12/22 08:09:31;;;;;;;16.55;11.88;;;;;;;8.04;100.00;99868.97;4963186;28;20209;-77
2022/12/22 08:12:00;;;;;;;17.88;12.35;;;;;;;8.10;100.00;99865.44;4948765;29;20284;-79
2022/12/22 08:14:31;;;;;;;16.10;12.75;;;;;;;8.01;100.00;99855.94;4960288;29;20188;-78
2022/12/22 08:17:00;;;;;;;20.13;13.38;;;;;;;8.11;100.00;99852.81;4959049;28;20201;-78
2022/12/22 08:19:30;;;;;;;18.95;11.30;;;;;;;8.00;100.00;99854.28;4957145;29;20185;-78
2022/12/22 08:22:00;;;;;;;18.23;12.43;;;;;;;8.01;100.00;99857.78;4945147;29;20264;-79
2022/12/22 08:24:29;;;;;;;19.45;13.43;;;;;;;8.08;100.00;99855.94;4944361;29;20252;-80
2022/12/22 08:27:03;;;;;;;18.33;13.48;;;;;;;8.17;100.00;99852.78;4944773;29;20240;-79
2022/12/22 08:29:40;;;;;;;19.55;14.15;;;;;;;8.13;100.00;99848.84;4942464;29;20964;-80
2022/12/22 08:32:11;;;;;;;19.08;13.20;;;;;;;8.07;100.00;99846.19;4942593;29;20263;-79
2022/12/22 08:34:43;;;;;;;16.65;10.93;;;;;;;8.12;100.00;99835.59;4943301;29;20203;-78
2022/12/22 08:37:16;;;;;;;15.57;11.68;;;;;;;8.22;100.00;99842.22;4943076;29;20298;-80
2022/12/22 08:39:48;;;;;;;13.65;11.20;;;;;;;8.23;100.00;99843.84;4941793;29;20193;-78
2022/12/22 08:42:20;;;;;;;18.98;11.80;;;;;;;8.26;100.00;99843.44;4941896;29;20201;-79
2022/12/22 08:44:54;;;;;;;15.05;11.70;;;;;;;8.09;100.00;99831.44;4944772;29;20603;-79
2022/12/22 08:47:24;;;;;;;25.77;12.88;;;;;;;8.09;100.00;99836.00;4944966;29;20220;-80
2022/12/22 08:49:53;;;;;;;19.23;11.77;;;;;;;8.26;100.00;99831.81;4941894;29;20511;-79
2022/12/22 08:52:22;;;;;;;21.92;13.23;;;;;;;8.34;100.00;99828.06;4942918;29;20197;-79
2022/12/22 08:54:52;;;;;;;18.75;11.73;;;;;;;8.33;100.00;99827.25;4942130;29;20267;-80
2022/12/22 08:57:21;;;;;;;21.70;12.93;;;;;;;8.31;100.00;99823.97;4943494;29;20200;-82
2022/12/22 08:59:52;;;;;;;17.98;10.60;;;;;;;8.28;100.00;99833.25;4940379;28;20649;-81
2022/12/22 09:02:21;;;;;;;18.52;11.30;;;;;;;8.49;100.00;99817.84;4939076;29;20264;-79
2022/12/22 09:04:51;;;;;;;12.70;10.10;;;;;;;8.47;100.00;99828.03;4940567;29;20533;-79
2022/12/22 09:07:20;;;;;;;12.45;10.10;;;;;;;8.39;100.00;99820.19;4926272;29;20451;-80
2022/12/22 09:09:49;;;;;;;14.18;10.15;;;;;;;8.23;100.00;99816.88;4941438;29;20200;-79
2022/12/22 09:12:18;;;;;;;19.48;11.75;;;;;;;8.19;100.00;99804.88;4943055;29;20668;-80
2022/12/22 09:14:48;;;;;;;16.90;10.63;;;;;;;8.38;100.00;99813.13;4943162;29;20196;-79
2022/12/22 09:17:18;;;;;;;16.00;9.80;;;;;;;8.39;100.00;99806.69;4939374;23;20235;-71
2022/12/22 09:19:48;;;;;;;15.80;10.00;;;;;;;8.44;100.00;99805.03;4934352;29;20192;-71
2022/12/22 09:22:17;;;;;;;12.77;9.27;;;;;;;8.61;100.00;99808.91;4937719;29;20228;-71
2022/12/22 09:24:56;;;;;;;13.63;10.00;;;;;;;8.69;100.00;99799.72;4934756;29;20431;-70
2022/12/22 09:27:26;;;;;;;14.53;9.27;;;;;;;8.70;100.00;99804.06;4937206;29;20802;-70
2022/12/22 09:29:55;;;;;;;14.47;9.97;;;;;;;8.76;100.00;99811.31;4977644;23;20498;-70
2022/12/22 09:32:27;;;;;;;23.00;11.43;;;;;;;8.80;100.00;99806.28;4942240;29;20880;-69
2022/12/22 09:34:56;;;;;;;11.55;9.45;;;;;;;8.73;100.00;99796.34;4940057;29;20231;-70
2022/12/22 09:37:25;;;;;;;16.00;10.40;;;;;;;8.61;100.00;99792.72;4939548;29;20255;-71
2022/12/22 09:39:54;;;;;;;15.07;10.70;;;;;;;8.72;100.00;99794.69;4940114;29;20217;-70
2022/12/22 09:42:23;;;;;;;20.15;9.57;;;;;;;8.75;100.00;99793.47;4939580;29;20442;-69
2022/12/22 09:44:53;;;;;;;14.00;10.23;;;;;;;8.73;100.00;99796.34;4942656;29;20632;-69
2022/12/22 09:47:32;;;;;;;10.23;9.07;;;;;;;8.77;100.00;99790.53;4937909;29;20566;-70
2022/12/22 09:50:02;;;;;;;13.40;8.98;;;;;;;8.71;100.00;99792.25;4938686;29;20592;-74
2022/12/22 09:52:44;;;;;;;11.32;8.20;;;;;;;8.69;100.00;99783.53;4932188;29;20185;-74
2022/12/22 09:55:23;;;;;;;12.38;9.57;;;;;;;8.81;100.00;99776.38;4949661;28;20196;-73
2022/12/22 09:57:53;;;;;;;10.07;7.97;;;;;;;8.72;100.00;99773.13;4938100;29;20345;-74
2022/12/22 10:00:25;;;;;;;14.10;9.30;;;;;;;8.89;100.00;99764.50;4938292;29;20467;-74
2022/12/22 10:03:04;;;;;;;10.55;8.90;;;;;;;8.79;100.00;99773.09;4938472;29;20415;-74
2022/12/22 10:05:43;;;;;;;10.00;7.50;;;;;;;8.76;100.00;99768.16;4937372;29;20257;-73
2022/12/22 10:08:21;;;;;;;13.37;9.00;;;;;;;8.72;100.00;99773.13;4938866;29;20407;-74
2022/12/22 10:10:54;;;;;;;14.33;9.93;;;;;;;8.89;100.00;99767.22;4932279;29;20961;-74
2022/12/22 10:13:23;;;;;;;8.87;7.77;;;;;;;8.78;100.00;99760.63;4934783;29;20443;-73
2022/12/22 10:15:54;;;;;;;16.60;10.57;;;;;;;9.00;100.00;99763.81;4924228;29;20407;-74
2022/12/22 10:18:28;;;;;;;15.83;8.53;;;;;;;8.93;100.00;99763.84;4936245;29;20436;-74
2022/12/22 10:21:11;;;;;;;12.80;10.07;;;;;;;8.93;100.00;99763.03;4930501;29;20410;-74
2022/12/22 10:23:44;;;;;;;11.23;9.45;;;;;;;8.86;100.00;99754.97;4937893;29;20456;-73
2022/12/22 10:26:18;;;;;;;12.27;8.70;;;;;;;8.79;100.00;99756.06;4940149;29;20236;-74
2022/12/22 10:29:03;;;;;;;14.77;9.60;;;;;;;8.83;100.00;99752.72;4943291;29;20453;-75
2022/12/22 10:31:38;;;;;;;11.63;8.37;;;;;;;9.01;100.00;99744.69;4935351;29;20908;-74
2022/12/22 10:34:15;;;;;;;14.40;9.70;;;;;;;9.00;100.00;99743.06;4936714;29;20429;-73
2022/12/22 10:36:49;;;;;;;11.70;9.00;;;;;;;8.94;100.00;99735.84;4937057;29;20523;-74
2022/12/22 10:39:26;;;;;;;11.57;7.87;;;;;;;9.10;100.00;99732.56;4916624;29;20493;-74
2022/12/22 10:42:00;;;;;;;16.27;9.17;;;;;;;9.20;100.00;99733.97;4938841;29;20436;-74
2022/12/22 10:44:33;;;;;;;16.37;9.00;;;;;;;9.08;100.00;99734.69;4938413;29;20434;-75
2022/12/22 10:47:16;;;;;;;12.47;8.37;;;;;;;9.04;100.00;99727.25;4936509;29;20445;-75
2022/12/22 10:49:49;;;;;;;13.13;8.23;;;;;;;9.01;100.00;99731.19;4933924;29;20449;-75
2022/12/22 10:52:21;;;;;;;9.47;8.10;;;;;;;8.95;100.00;99726.72;4934926;29;20461;-74
2022/12/22 10:55:16;;;;;;;10.17;8.30;;;;;;;9.12;100.00;99726.97;4940953;29;20778;-74
2022/12/22 10:57:45;;;;;;;15.27;8.80;;;;;;;9.16;100.00;99723.59;4920603;29;20484;-75
2022/12/22 11:00:26;;;;;;;23.40;9.23;;;;;;;9.19;100.00;99724.22;4936403;29;20518;-75
2022/12/22 11:02:57;;;;;;;16.23;9.80;;;;;;;9.09;100.00;99722.84;4932413;29;20986;-74
2022/12/22 11:05:28;;;;;;;12.30;9.70;;;;;;;9.13;100.00;99715.13;4933521;29;20189;-73
2022/12/22 11:08:01;;;;;;;12.83;9.37;;;;;;;9.06;100.00;99720.56;4935919;29;20523;-75
2022/12/22 11:10:38;;;;;;;13.60;9.20;;;;;;;9.13;100.00;99721.34;4938047;29;20504;-75
2022/12/22 11:13:28;;;;;;;11.67;8.20;;;;;;;9.21;100.00;99714.00;4934729;29;20795;-74
2022/12/22 11:16:03;;;;;;;16.10;9.77;;;;;;;9.16;100.00;99709.28;4938487;29;20415;-76
2022/12/22 11:18:50;;;;;;;10.00;8.77;;;;;;;9.27;100.00;99707.72;4938293;29;20489;-74
2022/12/22 11:21:28;;;;;;;10.63;7.53;;;;;;;9.14;100.00;99708.69;4934789;29;21073;-75
2022/12/22 11:24:10;;;;;;;11.48;9.15;;;;;;;9.23;100.00;99698.44;4938308;29;20444;-75
2022/12/22 11:26:49;;;;;;;8.97;7.90;;;;;;;9.36;100.00;99695.59;4938226;29;20299;-75
2022/12/22 11:29:33;;;;;;;14.43;9.50;;;;;;;9.38;100.00;99690.81;4938276;28;20870;-75
2022/12/22 11:32:22;;;;;;;11.03;9.73;;;;;;;9.27;100.00;99694.22;4937290;29;20459;-73
2022/12/22 11:35:00;;;;;;;13.50;10.10;;;;;;;9.61;100.00;99696.38;4912210;29;20551;-74
2022/12/22 11:37:43;;;;;;;12.57;9.50;;;;;;;9.62;100.00;99692.63;4935192;29;20421;-74
2022/12/22 11:40:26;;;;;;;15.60;9.77;;;;;;;9.71;100.00;99688.56;4910879;29;20474;-75
2022/12/22 11:43:13;;;;;;;9.70;8.27;;;;;;;9.68;100.00;99685.50;4938472;29;20435;-75
2022/12/22 11:45:55;;;;;;;13.50;9.50;;;;;;;9.83;100.00;99689.44;4934198;29;20531;-75
2022/12/22 11:49:08;;;;;;;16.00;10.80;;;;;;;9.77;100.00;99684.97;4936659;29;20461;-74
2022/12/22 11:52:00;;;;;;;15.53;10.30;;;;;;;9.87;100.00;99687.13;4935236;29;20494;-74
2022/12/22 11:54:56;;;;;;;10.73;8.70;;;;;;;9.90;100.00;99684.81;4934320;29;20433;-76
2022/12/22 11:57:34;;;;;;;14.30;8.83;;;;;;;9.91;100.00;99680.22;4936303;29;20437;-75
2022/12/22 12:00:09;;;;;;;8.77;7.00;;;;;;;9.75;100.00;99681.66;4932193;29;21034;-75
2022/12/22 12:03:15;;;;;;;10.97;7.97;;;;;;;9.96;100.00;99673.09;4936935;29;20432;-74
2022/12/22 12:06:10;;;;;;;9.40;7.13;;;;;;;9.88;100.00;99678.78;4940331;29;20499;-75
2022/12/22 12:08:54;;;;;;;11.30;8.20;;;;;;;9.71;100.00;99669.66;4939088;29;20470;-75
2022/12/22 12:11:43;;;;;;;12.33;8.33;;;;;;;9.90;100.00;99665.88;4940388;29;20441;-74
2022/12/22 12:14:24;;;;;;;10.70;7.70;;;;;;;9.89;100.00;99677.75;4932902;29;20440;-75
2022/12/22 12:16:58;;;;;;;13.90;7.90;;;;;;;9.73;100.00;99667.53;4944011;29;20454;-75
2022/12/22 12:20:02;;;;;;;10.37;8.20;;;;;;;9.98;100.00;99667.44;4941957;29;20866;-74
2022/12/22 12:22:44;;;;;;;11.03;8.13;;;;;;;9.96;100.00;99681.19;4934772;29;20630;-75
2022/12/22 12:25:25;;;;;;;12.63;8.50;;;;;;;9.94;100.00;99672.47;4937177;29;20435;-74
2022/12/22 12:28:13;;;;;;;8.37;6.83;;;;;;;9.81;100.00;99669.13;4935001;29;20464;-75
2022/12/22 12:30:51;;;;;;;8.47;7.47;;;;;;;9.88;100.00;99664.44;4934554;29;20800;-75
2022/12/22 12:33:36;;;;;;;8.47;6.43;;;;;;;9.77;100.00;99674.16;4937841;29;20525;-73
2022/12/22 12:36:14;;;;;;;9.37;7.40;;;;;;;9.75;100.00;99673.56;4934975;29;20434;-75
2022/12/22 12:38:55;;;;;;;12.20;9.40;;;;;;;9.78;100.00;99675.78;4919484;29;20429;-75
2022/12/22 12:41:47;;;;;;;19.10;7.40;;;;;;;9.69;100.00;99671.75;4935313;29;20476;-76
2022/12/22 12:44:23;;;;;;;10.70;9.33;;;;;;;9.80;100.00;99673.69;4935430;29;20504;-75
2022/12/22 12:47:05;;;;;;;9.80;7.70;;;;;;;9.81;100.00;99669.13;4929772;29;20914;-75
2022/12/22 12:49:56;;;;;;;9.70;7.47;;;;;;;9.91;100.00;99664.84;4933103;29;20937;-75
2022/12/22 12:53:14;;;;;;;9.80;8.43;;;;;;;9.74;100.00;99658.38;4933281;29;20400;-75
2022/12/22 12:56:01;;;;;;;9.03;7.40;;;;;;;9.74;100.00;99663.78;4933654;29;20805;-74
2022/12/22 12:58:56;;;;;;;11.17;7.80;;;;;;;9.80;100.00;99662.91;4936818;29;20945;-75
2022/12/22 13:02:00;;;;;;;13.00;8.17;;;;;;;9.87;100.00;99663.66;4934386;29;20431;-74
2022/12/22 13:05:12;;;;;;;9.90;7.90;;;;;;;9.74;100.00;99666.50;4937888;29;20562;-74
2022/12/22 13:08:14;;;;;;;10.17;7.13;;;;;;;9.74;100.00;99662.97;4941437;29;20460;-75
2022/12/22 13:10:46;;;;;;;13.90;8.63;;;;;;;9.68;100.00;99672.81;4939565;29;20461;-74
2022/12/22 13:13:48;;;;;;;8.63;7.00;;;;;;;9.54;100.00;99682.09;4937768;29;20429;-74
2022/12/22 13:16:37;;;;;;;10.00;7.13;;;;;;;9.53;100.00;99680.47;4938703;29;20443;-75
2022/12/22 13:19:21;;;;;;;8.67;7.10;;;;;;;9.54;100.00;99682.09;4935756;29;20490;-75
2022/12/22 13:21:50;;;;;;;9.50;6.97;;;;;;;9.57;100.00;99689.78;4939287;29;21092;-74
2022/12/22 13:24:30;;;;;;;9.77;7.60;;;;;;;9.61;100.00;99693.66;4935976;29;20496;-75
2022/12/22 13:27:06;;;;;;;8.97;6.43;;;;;;;9.60;100.00;99694.72;4935005;29;20498;-75
2022/12/22 13:29:44;;;;;;;12.73;6.67;;;;;;;9.49;100.00;99698.16;4937031;29;20793;-74
2022/12/22 13:32:23;;;;;;;8.87;6.73;;;;;;;9.44;100.00;99701.53;4938304;29;20432;-76
2022/12/22 13:35:16;;;;;;;8.03;6.50;;;;;;;9.61;100.00;99701.78;4938038;29;20433;-74
2022/12/22 13:38:00;;;;;;;7.50;6.13;;;;;;;9.60;100.00;99710.91;4926530;29;20422;-74
2022/12/22 13:40:31;;;;;;;7.37;6.27;;;;;;;9.58;100.00;99708.44;4941232;29;20508;-74
2022/12/22 13:43:04;;;;;;;13.43;7.00;;;;;;;9.64;100.00;99709.41;4947399;29;20458;-73
2022/12/22 13:45:39;;;;;;;10.50;7.33;;;;;;;9.67;100.00;99700.88;4949076;29;20449;-74
2022/12/22 13:48:17;;;;;;;12.63;8.40;;;;;;;9.69;100.00;99717.66;4944299;29;20442;-75
2022/12/22 13:50:52;;;;;;;10.10;7.40;;;;;;;9.66;100.00;99720.00;4950090;29;20480;-73
2022/12/22 13:53:31;;;;;;;9.23;7.43;;;;;;;9.52;100.00;99716.63;4951194;29;20855;-74
2022/12/22 13:56:23;;;;;;;8.40;7.03;;;;;;;9.53;100.00;99727.22;4940341;29;20428;-74
2022/12/22 13:58:57;;;;;;;7.77;6.80;;;;;;;9.46;100.00;99723.75;4938602;29;20805;-74
2022/12/22 14:01:27;;;;;;;9.97;6.67;;;;;;;9.47;100.00;99721.88;4939604;29;20423;-75
2022/12/22 14:04:01;;;;;;;10.53;8.07;;;;;;;9.42;100.00;99724.41;4938856;29;20437;-77
2022/12/22 14:06:35;;;;;;;12.87;8.47;;;;;;;9.46;100.00;99733.72;4944125;29;20917;-75
2022/12/22 14:09:16;;;;;;;8.03;6.97;;;;;;;9.50;100.00;99724.09;4936739;29;21038;-75
2022/12/22 14:11:49;;;;;;;9.63;8.43;;;;;;;9.56;100.00;99726.75;4936343;29;20761;-74
2022/12/22 14:14:25;;;;;;;11.00;7.57;;;;;;;9.54;100.00;99738.81;4943354;29;20515;-75
2022/12/22 14:16:57;;;;;;;11.97;9.80;;;;;;;9.46;100.00;99736.41;4952896;29;20432;-74
2022/12/22 14:19:30;;;;;;;8.27;6.83;;;;;;;9.42;100.00;99748.72;4949900;29;20534;-75
2022/12/22 14:22:08;;;;;;;12.57;9.20;;;;;;;9.34;100.00;99754.41;4951222;29;20407;-75
2022/12/22 14:24:44;;;;;;;12.30;9.20;;;;;;;9.34;100.00;99759.81;4949784;29;20508;-73
2022/12/22 14:27:31;;;;;;;10.17;7.43;;;;;;;9.13;100.00;99759.13;4940601;29;20498;-74
2022/12/22 14:30:05;;;;;;;9.60;7.47;;;;;;;9.18;100.00;99763.03;4936703;29;20490;-73
2022/12/22 14:32:39;;;;;;;11.00;6.85;;;;;;;9.20;100.00;99763.66;4944444;29;20268;-73
2022/12/22 14:35:27;;;;;;;10.20;8.27;;;;;;;9.20;100.00;99771.75;4935023;29;20638;-73
2022/12/22 14:38:20;;;;;;;11.37;8.30;;;;;;;9.20;100.00;99763.66;4938369;29;20441;-75
2022/12/22 14:40:49;;;;;;;12.27;8.90;;;;;;;9.22;100.00;99777.75;4939510;29;20456;-73
2022/12/22 14:43:30;;;;;;;9.27;7.03;;;;;;;9.19;100.00;99787.13;4932269;29;20439;-74
2022/12/22 14:46:08;;;;;;;9.80;8.53;;;;;;;9.15;100.00;99784.03;4926800;29;20454;-74
2022/12/22 14:48:45;;;;;;;8.77;6.50;;;;;;;9.17;100.00;99786.50;4936286;29;20562;-73
2022/12/22 14:51:17;;;;;;;13.27;9.50;;;;;;;9.14;100.00;99787.78;4935792;29;20452;-73
2022/12/22 14:53:51;;;;;;;10.00;7.13;;;;;;;9.15;100.00;99783.19;4936515;29;20434;-75
2022/12/22 14:56:21;;;;;;;7.40;6.70;;;;;;;9.16;100.00;99790.25;4936571;29;20421;-74
2022/12/22 14:58:50;;;;;;;10.27;8.40;;;;;;;9.08;100.00;99793.22;4942354;29;20440;-74
2022/12/22 15:01:23;;;;;;;9.93;7.70;;;;;;;9.11;100.00;99801.69;4936150;29;20462;-74
2022/12/22 15:04:17;;;;;;;10.02;6.07;;;;;;;9.20;100.00;99806.84;4937885;29;20420;-74
2022/12/22 15:06:48;;;;;;;7.27;5.70;;;;;;;9.18;100.00;99808.94;4946976;29;20279;-74
2022/12/22 15:09:32;;;;;;;11.50;5.80;;;;;;;9.15;100.00;99815.56;4925400;29;20455;-75
2022/12/22 15:12:21;;;;;;;5.90;5.10;;;;;;;9.14;100.00;99817.47;4923516;29;20418;-74
2022/12/22 15:14:51;;;;;;;7.13;6.10;;;;;;;9.15;100.00;99815.56;4930977;29;20420;-73
2022/12/22 15:17:24;;;;;;;8.45;6.13;;;;;;;9.09;100.00;99821.88;4927018;29;20451;-74
2022/12/22 15:19:57;;;;;;;6.97;6.17;;;;;;;9.10;100.00;99827.03;4929255;29;20213;-74
2022/12/22 15:22:27;;;;;;;5.35;4.85;;;;;;;9.12;100.00;99837.63;4921030;29;20431;-74
2022/12/22 15:24:59;;;;;;;5.87;4.70;;;;;;;9.20;100.00;99833.84;4914084;29;20208;-74
2022/12/22 15:27:29;;;;;;;8.77;5.73;;;;;;;9.12;100.00;99848.41;4921170;29;20440;-74
2022/12/22 15:29:58;;;;;;;8.80;5.17;;;;;;;9.12;100.00;99848.41;4953286;23;20496;-71
2022/12/22 15:32:29;;;;;;;6.38;5.50;;;;;;;9.12;100.00;99848.41;4937504;29;20451;-72
2022/12/22 15:35:16;;;;;;;11.63;6.20;;;;;;;9.17;100.00;99856.69;4941040;29;20199;-69
2022/12/22 15:37:45;;;;;;;6.23;5.43;;;;;;;9.13;100.00;99868.97;4944361;29;20197;-70
2022/12/22 15:40:21;;;;;;;9.23;5.57;;;;;;;9.18;100.00;99869.13;4932602;29;20453;-71